Back to Top
Banner_Quays_at_Mast_2020.jpeg
Banner_VERITY.jpeg
Banner_P42_Kinsale_2004.jpeg
Superyacht_SCOUT.jpg
Kinsale_Trawlers_Banner.jpeg
previous arrow
next arrow

Port Arrivals Report (AIS)

This report is generated from collected AIS (Automated Identification System) signals from vessels entering port.

IMO MMSI Class Flag Vessel Name Vessel type Nav Status Destination Call Sign Latitude Longitude Speed (kts) Course (T) Draught (m) LOA (m) Beam (m) Timestamp
0 232032968 B GB SAORSA SAILING. - MIPN5 51.6871 -8.49835 4.6 340.2 0 13 4 2024-06-30 15:48:51
0 250013607 B IE DRUMLIN SAILING. - EIA2063 51.6873 -8.49971 3 3 0 10 4 2024-06-30 15:21:52
0 250001828 A IE EMILIJA SAILING. Moored EIHU-6 51.689 -8.49983 7.8 349.9 2.3 16 4 2024-06-30 15:15:41
0 250001406 B IE WINDSHIFT SAILING. - EI-AD-3 51.6877 -8.50071 5.5 349.7 0 11 3 2024-06-30 14:04:06
0 232041863 B GB BLUE WAY SAILING. - MLLO2 51.6878 -8.4999 5.5 358.5 0 12 4 2024-06-30 11:58:28
0 250014106 B IE FIONA SAILING. - EIA2571 51.6874 -8.4974 3 341.1 0 9 0 2024-06-30 08:32:55
0 250006606 B IE ROCINANTE SAILING. - EI-ZP-5 51.6876 -8.4981 4.6 1.7 0 12 3 2024-06-30 08:23:45
0 244180979 B NL WATERRAM SAILING. - PI4403 51.6882 -8.49903 6.1 6.1 0 13 6 2024-06-29 19:08:12
0 232016609 B GB RNLI LIFEBOAT B-909 SAR. - 51.6876 -8.49989 7.5 347.1 0 8 2 2024-06-29 18:47:58
0 232042098 B GB CASALAMY Pleasure craft - MLOD3 51.6885 -8.50039 7.4 353.5 0 12 5 2024-06-29 18:07:48
0 250013825 B IE MAWINGO SAILING. - EIA2292 51.6873 -8.49903 3.5 342.2 0 11 4 2024-06-29 17:27:22
0 235005341 B GB REVELRY Pleasure craft - VSYW4 51.6872 -8.49802 4.7 346.2 0 0 0 2024-06-29 16:40:31
0 211163200 B DE - - 51.6883 -8.49932 4.6 355.4 0 0 0 2024-06-29 16:32:17
0 250013607 B IE DRUMLIN SAILING. - EIA2063 51.6882 -8.49866 3.4 5.7 0 10 4 2024-06-29 16:13:36
0 250103750 B IE HARPY DREDGING / UNDERWATER Ops. - EI7410 51.6889 -8.50198 9.1 347.4 0 13 4 2024-06-29 16:12:50
0 227361790 B FR SACREBLEU SAILING. - FAC9319 51.6879 -8.49977 4.2 343.3 0 14 5 2024-06-29 16:05:31
0 250005133 B IE PURE MAGIC TOO Pleasure craft - EITX8 51.6876 -8.49898 9.2 357.6 0 12 4 2024-06-29 15:13:13
0 235094828 B GB INTUITION Pleasure craft - 2FWN2 51.69 -8.49789 15.9 332.2 0 12 8 2024-06-29 14:17:54
0 232016609 B GB RNLI LIFEBOAT B-909 SAR. - 51.691 -8.50035 32.5 343.8 0 8 2 2024-06-29 10:03:58
0 367747970 B US HELACIOUS Pleasure craft - WDI9371 51.6884 -8.49862 6.3 359.9 0 14 4 2024-06-29 09:47:30